createdAt,value
2018-06-20T00:01:09.036Z,22.23
2018-06-20T00:05:11.251Z,19.70
2018-06-20T00:09:13.428Z,22.90
2018-06-20T00:13:15.611Z,21.33
2018-06-20T00:17:17.789Z,22.40
2018-06-20T00:21:19.968Z,24.73
2018-06-20T00:25:22.161Z,21.80
2018-06-20T00:29:24.360Z,22.07
2018-06-20T00:33:26.580Z,21.67
2018-06-20T00:37:28.736Z,20.50
2018-06-20T00:41:30.911Z,22.50
2018-06-20T00:45:33.080Z,21.87
2018-06-20T00:49:35.276Z,28.40
2018-06-20T00:53:37.444Z,18.40
2018-06-20T00:57:39.603Z,24.83
2018-06-20T01:01:41.779Z,21.17
2018-06-20T01:05:43.981Z,21.13
2018-06-20T01:09:46.144Z,21.40
2018-06-20T01:13:48.340Z,22.80
2018-06-20T01:17:50.495Z,24.43
2018-06-20T01:21:52.668Z,26.27
2018-06-20T01:25:54.904Z,22.87
2018-06-20T01:29:57.140Z,21.43
2018-06-20T01:33:59.337Z,22.30
2018-06-20T01:38:01.717Z,21.30
2018-06-20T01:42:03.973Z,34.03
2018-06-20T01:46:06.171Z,25.20
2018-06-20T01:50:08.356Z,20.60
2018-06-20T01:54:10.548Z,20.53
2018-06-20T01:58:12.723Z,25.97
2018-06-20T02:02:14.895Z,19.03
2018-06-20T02:06:17.065Z,27.93
2018-06-20T02:10:19.837Z,24.33
2018-06-20T02:14:22.016Z,27.90
2018-06-20T02:18:24.181Z,29.47
2018-06-20T02:22:26.353Z,25.87
2018-06-20T02:26:28.600Z,32.60
2018-06-20T02:30:30.856Z,26.73
2018-06-20T02:34:33.041Z,36.27
2018-06-20T02:38:35.317Z,31.37
2018-06-20T02:42:37.501Z,27.13
2018-06-20T02:46:39.671Z,31.63
2018-06-20T02:50:41.850Z,32.43
2018-06-20T02:54:44.020Z,31.10
2018-06-20T02:58:46.264Z,34.90
2018-06-20T03:02:48.599Z,29.80
2018-06-20T03:06:50.793Z,27.43
2018-06-20T03:10:52.993Z,31.67
2018-06-20T03:14:55.224Z,31.43
2018-06-20T03:18:57.393Z,31.13
2018-06-20T03:22:59.576Z,25.83
2018-06-20T03:27:01.841Z,31.60
2018-06-20T03:31:04.005Z,39.90
2018-06-20T03:35:06.159Z,38.73
2018-06-20T03:39:09.093Z,32.53
2018-06-20T03:43:11.252Z,34.80
2018-06-20T03:47:13.498Z,35.47
2018-06-20T03:51:15.624Z,31.87
2018-06-20T03:55:17.928Z,32.47
2018-06-20T03:59:20.124Z,33.20
2018-06-20T04:03:22.308Z,25.80
2018-06-20T04:07:24.479Z,27.50
2018-06-20T04:11:26.665Z,30.13
2018-06-20T04:15:28.848Z,30.47
2018-06-20T04:19:31.021Z,27.60
2018-06-20T04:23:33.193Z,24.40
2018-06-20T04:27:35.455Z,29.60
2018-06-20T04:31:37.661Z,27.43
2018-06-20T04:35:39.860Z,26.53
2018-06-20T04:39:42.028Z,30.37
2018-06-20T04:43:44.196Z,24.40
2018-06-20T04:47:46.483Z,25.13
2018-06-20T04:51:48.631Z,26.33
2018-06-20T04:55:50.800Z,24.53
2018-06-20T04:59:52.976Z,23.57
2018-06-20T05:03:55.140Z,23.00
2018-06-20T05:07:57.324Z,22.67
2018-06-20T05:11:59.509Z,23.50
2018-06-20T05:16:01.702Z,22.33
2018-06-20T05:20:03.928Z,22.00
2018-06-20T05:24:06.324Z,22.00
2018-06-20T05:28:08.529Z,21.07
2018-06-20T05:32:10.716Z,23.10
2018-06-20T05:36:12.904Z,23.13
2018-06-20T05:40:15.088Z,23.10
2018-06-20T05:44:17.261Z,22.43
2018-06-20T05:48:19.445Z,19.00
2018-06-20T05:52:21.624Z,20.97
2018-06-20T05:56:23.792Z,19.33
2018-06-20T06:00:26.013Z,19.80
2018-06-20T06:04:28.324Z,20.07
2018-06-20T06:08:30.500Z,20.93
2018-06-20T06:12:32.667Z,17.77
2018-06-20T06:16:34.832Z,18.83
2018-06-20T06:20:37.000Z,18.13
2018-06-20T06:24:39.176Z,19.83
2018-06-20T06:28:41.360Z,22.53
2018-06-20T06:32:43.548Z,17.60
2018-06-20T06:36:45.704Z,15.97
2018-06-20T06:40:47.872Z,15.50
2018-06-20T06:44:50.092Z,15.80
2018-06-20T06:48:52.277Z,14.97
2018-06-20T06:52:54.467Z,14.60
2018-06-20T06:56:56.664Z,14.63
2018-06-20T07:00:58.872Z,14.70
2018-06-20T07:05:01.045Z,14.50
2018-06-20T07:09:05.263Z,13.67
2018-06-20T07:13:07.493Z,14.50
2018-06-20T07:17:09.669Z,15.47
2018-06-20T07:21:11.856Z,13.30
2018-06-20T07:25:14.036Z,13.83
2018-06-20T07:29:16.240Z,12.87
2018-06-20T07:33:18.432Z,13.17
2018-06-20T07:37:21.693Z,14.43
2018-06-20T07:41:23.860Z,13.43
2018-06-20T07:45:26.322Z,12.00
2018-06-20T07:49:28.556Z,12.60
2018-06-20T07:53:30.732Z,13.83
2018-06-20T07:57:32.913Z,13.37
2018-06-20T08:01:52.676Z,10.80
2018-06-20T08:06:00.516Z,12.80
2018-06-20T08:10:08.559Z,11.53
2018-06-20T08:14:16.557Z,11.67
2018-06-20T08:18:24.567Z,12.13
2018-06-20T08:22:27.188Z,12.10
2018-06-20T08:26:29.400Z,10.97
2018-06-20T08:30:31.568Z,12.23
2018-06-20T08:34:33.792Z,11.03
2018-06-20T08:38:35.995Z,11.47
2018-06-20T08:42:38.188Z,11.63
2018-06-20T08:46:40.336Z,10.73
2018-06-20T08:50:42.532Z,10.20
2018-06-20T08:54:44.776Z,9.47
2018-06-20T08:58:46.952Z,9.23
2018-06-20T09:02:49.140Z,10.77
2018-06-20T09:06:57.040Z,10.87
2018-06-20T09:11:05.016Z,10.43
2018-06-20T09:15:13.092Z,11.07
2018-06-20T09:19:21.040Z,11.47
2018-06-20T09:23:23.263Z,10.33
2018-06-20T09:27:25.465Z,10.73
2018-06-20T09:31:27.656Z,13.10
2018-06-20T09:35:29.837Z,13.43
2018-06-20T09:39:32.168Z,11.87
2018-06-20T09:43:34.368Z,13.23
2018-06-20T09:47:36.581Z,14.00
2018-06-20T09:51:38.762Z,14.80
2018-06-20T09:55:40.970Z,14.10
2018-06-20T09:59:48.917Z,14.50
2018-06-20T10:03:56.888Z,16.13
2018-06-20T10:08:04.877Z,14.83
2018-06-20T10:12:10.359Z,15.83
2018-06-20T10:16:12.544Z,14.37
2018-06-20T10:20:20.537Z,15.90
2018-06-20T10:24:22.679Z,16.30
2018-06-20T10:28:24.862Z,17.60
2018-06-20T10:32:27.088Z,18.50
2018-06-20T10:36:29.299Z,16.47
2018-06-20T10:40:31.479Z,17.03
2018-06-20T10:44:33.671Z,16.97
2018-06-20T10:48:35.866Z,17.20
2018-06-20T10:52:38.119Z,17.40
2018-06-20T10:56:46.151Z,27.80
2018-06-20T11:00:53.997Z,25.73
2018-06-20T11:05:01.976Z,26.10
2018-06-20T11:09:12.068Z,27.50
2018-06-20T11:13:14.944Z,26.73
2018-06-20T11:17:17.168Z,29.23
2018-06-20T11:21:19.360Z,26.10
2018-06-20T11:25:21.574Z,27.87
2018-06-20T11:29:23.812Z,26.77
2018-06-20T11:33:25.996Z,26.90
2018-06-20T11:37:28.206Z,26.60
2018-06-20T11:41:30.383Z,28.90
2018-06-20T11:45:38.404Z,26.80
2018-06-20T11:49:49.338Z,27.40
2018-06-20T11:53:51.487Z,27.03
2018-06-20T11:57:58.280Z,37.73
2018-06-20T12:02:06.181Z,33.90
2018-06-20T12:06:14.051Z,27.60
2018-06-20T12:10:21.853Z,42.27
2018-06-20T12:14:29.756Z,29.60
2018-06-20T12:18:37.675Z,28.73
2018-06-20T12:22:45.676Z,28.33
2018-06-20T12:26:53.584Z,25.70
2018-06-20T12:31:01.381Z,28.00
2018-06-20T12:35:09.379Z,26.90
2018-06-20T12:39:11.204Z,29.13
2018-06-20T12:43:19.224Z,27.40
2018-06-20T12:47:24.332Z,26.53
2018-06-20T12:51:26.720Z,24.03
2018-06-20T12:55:28.952Z,24.57
2018-06-20T12:59:31.184Z,25.20
2018-06-20T13:03:33.372Z,25.60
2018-06-20T13:07:35.552Z,28.00
2018-06-20T13:11:37.781Z,29.63
2018-06-20T13:15:39.976Z,25.77
2018-06-20T13:19:42.164Z,27.03
2018-06-20T13:23:44.294Z,26.77
2018-06-20T13:27:47.466Z,24.20
2018-06-20T13:31:55.232Z,24.63
2018-06-20T13:36:03.383Z,23.23
2018-06-20T13:40:11.349Z,24.67
2018-06-20T13:44:18.184Z,28.67
2018-06-20T13:48:26.131Z,26.03
2018-06-20T13:52:28.700Z,24.90
2018-06-20T13:56:30.884Z,30.43
2018-06-20T14:00:33.080Z,22.90
2018-06-20T14:04:35.260Z,21.97
2018-06-20T14:08:37.492Z,24.33
2018-06-20T14:12:39.998Z,24.57
2018-06-20T14:16:42.245Z,22.27
2018-06-20T14:20:50.092Z,24.90
2018-06-20T14:24:52.268Z,20.33
2018-06-20T14:28:54.461Z,22.43
2018-06-20T14:33:02.475Z,21.33
2018-06-20T14:37:10.385Z,24.63
2018-06-20T14:41:18.392Z,26.70
2018-06-20T14:45:26.730Z,21.60
2018-06-20T14:49:29.048Z,22.87
2018-06-20T14:53:31.240Z,22.03
2018-06-20T14:57:33.506Z,21.70
2018-06-20T15:01:35.744Z,22.57
2018-06-20T15:05:38.032Z,18.53
2018-06-20T15:09:40.233Z,20.90
2018-06-20T15:13:42.479Z,19.40
2018-06-20T15:17:44.672Z,24.27
2018-06-20T15:21:46.872Z,20.47
2018-06-20T15:25:54.693Z,19.60
2018-06-20T15:30:02.768Z,18.27
2018-06-20T15:34:10.748Z,20.87
2018-06-20T15:38:16.956Z,19.63
2018-06-20T15:42:19.185Z,17.77
2018-06-20T15:46:31.741Z,18.80
2018-06-20T15:50:33.966Z,16.83
2018-06-20T15:54:36.171Z,17.57
2018-06-20T15:58:38.496Z,20.30
2018-06-20T16:02:40.740Z,15.93
2018-06-20T16:06:42.944Z,18.73
2018-06-20T16:10:45.207Z,18.60
2018-06-20T16:14:47.412Z,18.63
2018-06-20T16:18:55.381Z,19.00
2018-06-20T16:23:03.423Z,19.53
2018-06-20T16:27:11.388Z,20.03
2018-06-20T16:31:13.600Z,22.47
2018-06-20T16:35:15.820Z,21.33
2018-06-20T16:39:18.017Z,23.60
2018-06-20T16:43:20.216Z,24.07
2018-06-20T16:47:22.420Z,24.77
2018-06-20T16:51:25.735Z,21.13
2018-06-20T16:55:27.960Z,21.40
2018-06-20T16:59:30.180Z,20.33
2018-06-20T17:03:32.359Z,19.63
2018-06-20T17:07:34.580Z,14.23
2018-06-20T17:11:36.816Z,14.37
2018-06-20T17:15:44.977Z,12.60
2018-06-20T17:19:52.909Z,11.07
2018-06-20T17:24:00.836Z,10.93
2018-06-20T17:28:03.041Z,10.43
2018-06-20T17:32:05.224Z,10.17
2018-06-20T17:36:07.424Z,9.53
2018-06-20T17:40:09.648Z,9.70
2018-06-20T17:44:11.860Z,8.57
2018-06-20T17:48:14.028Z,7.80
2018-06-20T17:52:16.224Z,8.03
2018-06-20T17:56:18.393Z,11.47
2018-06-20T18:00:20.628Z,8.17
2018-06-20T18:04:28.576Z,8.80
2018-06-20T18:08:36.508Z,8.43
2018-06-20T18:12:44.385Z,8.17
2018-06-20T18:16:52.418Z,6.90
2018-06-20T18:20:54.629Z,6.90
2018-06-20T18:24:56.841Z,6.37
2018-06-20T18:28:59.029Z,5.57
2018-06-20T18:33:01.193Z,5.37
2018-06-20T18:37:03.595Z,5.03
2018-06-20T18:41:05.932Z,4.63
2018-06-20T18:45:08.060Z,5.00
2018-06-20T18:49:10.273Z,5.10
2018-06-20T18:53:12.636Z,4.07
2018-06-20T18:57:20.549Z,6.10
2018-06-20T19:01:28.586Z,3.90
2018-06-20T19:05:37.096Z,11.23
2018-06-20T19:09:39.321Z,4.83
2018-06-20T19:13:41.496Z,4.30
2018-06-20T19:17:43.688Z,3.30
2018-06-20T19:21:45.848Z,3.63
2018-06-20T19:25:48.067Z,6.27
2018-06-20T19:29:50.312Z,5.70
2018-06-20T19:33:52.520Z,3.67
2018-06-20T19:37:54.701Z,3.43
2018-06-20T19:41:56.928Z,5.10
2018-06-20T19:46:01.538Z,3.90
2018-06-20T19:50:03.804Z,3.90
2018-06-20T19:54:05.973Z,6.47
2018-06-20T19:58:08.120Z,3.07
2018-06-20T20:02:10.276Z,4.03
2018-06-20T20:06:12.432Z,7.73
2018-06-20T20:10:14.629Z,4.33
2018-06-20T20:14:16.838Z,5.70
2018-06-20T20:18:18.984Z,5.70
2018-06-20T20:22:21.173Z,4.33
2018-06-20T20:26:23.352Z,4.87
2018-06-20T20:30:25.509Z,5.10
2018-06-20T20:34:27.680Z,4.90
2018-06-20T20:38:29.852Z,6.03
2018-06-20T20:42:32.020Z,6.57
2018-06-20T20:46:34.257Z,5.80
2018-06-20T20:50:36.409Z,9.50
2018-06-20T20:54:38.596Z,6.70
2018-06-20T20:58:40.733Z,6.00
2018-06-20T21:02:42.917Z,6.10
2018-06-20T21:06:45.140Z,7.33
2018-06-20T21:10:47.323Z,6.07
2018-06-20T21:14:49.476Z,6.43
2018-06-20T21:18:51.659Z,6.50
2018-06-20T21:22:53.844Z,6.70
2018-06-20T21:26:56.021Z,5.90
2018-06-20T21:30:58.304Z,6.90
2018-06-20T21:35:00.461Z,7.13
2018-06-20T21:39:02.872Z,7.20
2018-06-20T21:43:05.084Z,7.10
2018-06-20T21:47:07.280Z,8.63
2018-06-20T21:51:09.445Z,8.47
2018-06-20T21:55:11.671Z,9.50
2018-06-20T21:59:13.852Z,8.47
2018-06-20T22:03:16.010Z,6.80
2018-06-20T22:07:18.200Z,8.03
2018-06-20T22:11:20.362Z,6.37
2018-06-20T22:15:22.540Z,8.70
2018-06-20T22:19:24.737Z,8.83
2018-06-20T22:23:26.924Z,8.40
2018-06-20T22:27:29.116Z,7.77
2018-06-20T22:31:31.260Z,9.40
2018-06-20T22:35:33.562Z,8.30
2018-06-20T22:39:35.798Z,8.23
2018-06-20T22:43:38.105Z,9.57
2018-06-20T22:47:40.311Z,9.63
2018-06-20T22:51:42.566Z,8.57
2018-06-20T22:55:44.814Z,9.10
2018-06-20T22:59:47.068Z,7.80
2018-06-20T23:03:49.343Z,9.70
2018-06-20T23:07:51.662Z,9.27
2018-06-20T23:11:53.904Z,9.67
2018-06-20T23:15:56.179Z,10.00
2018-06-20T23:19:58.429Z,9.00
2018-06-20T23:24:00.774Z,10.60
2018-06-20T23:28:03.057Z,12.30
2018-06-20T23:32:05.950Z,13.67
2018-06-20T23:36:08.277Z,12.23
2018-06-20T23:40:10.562Z,16.80
2018-06-20T23:44:12.851Z,16.87
2018-06-20T23:48:15.117Z,17.03
2018-06-20T23:52:17.367Z,17.53
2018-06-20T23:56:20.226Z,16.80
